Waterford, NY (12188)

11:16 PM EDT on July 04, 2015 (GMT -0400)
Town of Waterford at Flight Locks west | | Change Station
CLOSE
Current Station
Personal Weather Station
Location: Waterford, NY
Elevation: 246 ft
Nearby Weather Stations

Elev 246 ft 42.82 °N, 73.71 °W | Updated 5 minutes ago

Partly Cloudy
Partly Cloudy
60.1 °F
Feels Like 60.1 °F
N
0.0
Wind Variable Wind from SE
Gusts 0.0 mph

Today
High -- | Low -- °F
--% Chance of Precip.
Yesterday
High -- | Low -- °F
Precip. -- in
5:21 AM 8:36 PM
Waning Gibbous, 88% visible
Pressure 30.01 in
Visibility 7.0 miles
Clouds Few 4000 ft
Scattered Clouds 25000 ft
Dew Point 58 °F
Humidity 93%
Rainfall 0.35 in
Snow Depth Not available.
UV 0 out of 12
Pollen 1.00 out of 12
Air Quality Not available.
Flu Activity Not available.
METAR KALB 050251Z 12003KT 7SM BCFG FEW040 SCT250 17/15 A3001 RMK AO2 SLP163 BCFG NW-NE T01670150 51021

More Conditions Fewer Conditions

Pressure 30.01 in
Visibility 7.0 miles
Clouds Few 4000 ft
Scattered Clouds 25000 ft
Dew Point 58 °F
Humidity 93%
Rainfall 0.35 in
Snow Depth Not available.
UV 0 out of 12
Pollen 1.00 out of 12
Air Quality Not available.
Flu Activity Not available.
METAR KALB 050251Z 12003KT 7SM BCFG FEW040 SCT250 17/15 A3001 RMK AO2 SLP163 BCFG NW-NE T01670150 51021

More Conditions Fewer Conditions

10-Day Weather Forecast

×

Almanac

Astronomy

Jul. 04, 2015 Rise Set
Actual Time
Civil Twilight
Nautical Twilight
Astronomical Twilight
Moon
Length of Visible Light
Length of Day
Tomorrow will be .
, % of the Moon is Illuminated

Today's Extremes

State Highs State Lows

Community

WunderPhotos

Upload Photos

1,835,177 photos uploaded!

WunderBlogs® & News

Nearby

Air Quality

  Air Quality AQ Index Pollutant
Not available.

Snow Depth

Station Depth Elevation

Earthquake Activity

City Distance Mag. Time & Date
Minimum magnitude displayed is 2.5.

Coastal Water Temperatures

Place Temperature

Stations

Nearby Weather Stations

Station Location Temp. Windchill Dew Point Humidity Wind Precip. Elev Updated Type